VYMD/MDL METAR and TAF weather

Enter ICAO airport designator
Station Type Date Time Source
VYMD METAR 2022/06/25 11:30 UTC NOAA

VYMD 251130Z 14005KT 7000 BKN018 FEW020CB SCT120 36/26 Q1000


Station Type Date Time Source
VYMD Decoded METAR 2022/06/25 11:30 UTC NOAA

Station name not available
Jun 25, 2022 - 07:30 AM EDT / 2022.06.25 1130 UTC
Wind: from the SE (140 degrees) at 6 MPH (5 KT):0
Visibility: 4 mile(s):0
Sky conditions: mostly cloudy
Weather: Cumulonimbus clouds observed
Temperature: 96 F (36 C)
Heat index: 112.5 F (44.7 C):1
Dew Point: 78 F (26 C)
Relative Humidity: 56%
Pressure (altimeter): 29.53 in. Hg (1000 hPa)
ob: VYMD 251130Z 14005KT 7000 BKN018 FEW020CB SCT120 36/26 Q1000
cycle: 11

Station Type Date Time Source
VYMD TAF 2022/06/25 12:00 UTC NOAA

TAF VYMD 251100Z 2512/2612 18007KT 7000 BKN020 FEW025CB BKN120
TEMPO 2512/2518 24008G18KT 5000 -TSRA BKN017 FEW020CB BKN100

Example: see airport list